Time;durP1;ratioP1;P1;durP2;ratioP2;P2;SDS_P1;SDS_P2;PMS_P1;PMS_P2;Temp;Humidity;BMP_temperature;BMP_pressure;BME280_temperature;BME280_humidity;BME280_pressure;Samples;Min_cycle;Max_cycle;Signal;HPM_P1;HPM_P2
2023/08/21 00:01:46;;;;;;;10.85;5.45;;;;;;;;;;4912932;29;20071;-82
2023/08/21 00:04:13;;;;;;;7.75;5.78;;;;;;;;;;4911648;29;20090;-82
2023/08/21 00:06:44;;;;;;;7.10;5.97;;;;;;;;;;4934297;29;20526;-82
2023/08/21 00:09:11;;;;;;;6.32;5.35;;;;;;;;;;4938538;29;20047;-81
2023/08/21 00:11:41;;;;;;;6.72;5.40;;;;;;;;;;4907411;29;20048;-81
2023/08/21 00:14:09;;;;;;;8.40;5.97;;;;;;;;;;4925789;29;20078;-81
2023/08/21 00:16:36;;;;;;;6.53;5.82;;;;;;;;;;4932644;29;20569;-82
2023/08/21 00:19:03;;;;;;;7.85;4.68;;;;;;;;;;4938209;29;20052;-83
2023/08/21 00:21:31;;;;;;;8.02;6.25;;;;;;;;;;4913073;29;20067;-83
2023/08/21 00:24:02;;;;;;;9.85;6.38;;;;;;;;;;4928291;29;20072;-82
2023/08/21 00:26:29;;;;;;;12.25;6.30;;;;;;;;;;4921125;29;20051;-83
2023/08/21 00:28:59;;;;;;;7.60;5.63;;;;;;;;;;4904807;29;20094;-82
2023/08/21 00:31:26;;;;;;;7.65;6.03;;;;;;;;;;4939799;29;20055;-82
2023/08/21 00:33:56;;;;;;;9.95;5.80;;;;;;;;;;4906069;29;20071;-82
2023/08/21 00:36:25;;;;;;;10.63;6.30;;;;;;;;;;4901092;29;20060;-81
2023/08/21 00:38:55;;;;;;;7.47;6.13;;;;;;;;;;4907202;29;20040;-82
2023/08/21 00:41:24;;;;;;;14.57;5.90;;;;;;;;;;4916924;29;20058;-82
2023/08/21 00:43:52;;;;;;;14.27;6.00;;;;;;;;;;4916549;29;20432;-82
2023/08/21 00:46:24;;;;;;;6.10;5.30;;;;;;;;;;4930149;29;20051;-82
2023/08/21 00:48:53;;;;;;;7.18;5.80;;;;;;;;;;4908085;29;20051;-82
2023/08/21 00:51:21;;;;;;;6.25;5.65;;;;;;;;;;4910901;29;20539;-82
2023/08/21 00:53:48;;;;;;;7.43;5.63;;;;;;;;;;4895136;29;20052;-82
2023/08/21 00:56:16;;;;;;;9.90;5.85;;;;;;;;;;4929106;29;20385;-82
2023/08/21 00:58:47;;;;;;;8.10;6.18;;;;;;;;;;4930244;29;20050;-82
2023/08/21 01:01:23;;;;;;;6.18;5.57;;;;;;;;;;4912995;29;20416;-82
2023/08/21 01:03:50;;;;;;;12.65;6.05;;;;;;;;;;4921715;29;20055;-82
2023/08/21 01:06:17;;;;;;;11.32;5.45;;;;;;;;;;4896134;29;20052;-82
2023/08/21 01:08:51;;;;;;;8.23;6.03;;;;;;;;;;4936343;29;20056;-82
2023/08/21 01:11:22;;;;;;;6.30;5.63;;;;;;;;;;4913566;29;20043;-82
2023/08/21 01:13:56;;;;;;;9.48;5.53;;;;;;;;;;4900491;29;20056;-81
2023/08/21 01:16:26;;;;;;;7.45;5.68;;;;;;;;;;4928481;29;20051;-81
2023/08/21 01:18:57;;;;;;;7.05;5.32;;;;;;;;;;4907448;29;20049;-83
2023/08/21 01:21:24;;;;;;;8.27;6.10;;;;;;;;;;4941276;29;20048;-82
2023/08/21 01:23:54;;;;;;;11.85;5.68;;;;;;;;;;4903743;29;20047;-83
2023/08/21 01:26:21;;;;;;;7.25;5.68;;;;;;;;;;4924315;29;20047;-82
2023/08/21 01:28:49;;;;;;;7.75;6.90;;;;;;;;;;4929413;29;20047;-82
2023/08/21 01:31:22;;;;;;;8.40;5.18;;;;;;;;;;4919585;29;20079;-82
2023/08/21 01:33:56;;;;;;;9.82;6.18;;;;;;;;;;4940494;29;20063;-82
2023/08/21 01:36:24;;;;;;;13.30;7.20;;;;;;;;;;4924695;29;20058;-82
2023/08/21 01:38:51;;;;;;;7.50;5.13;;;;;;;;;;4921549;29;20052;-82
2023/08/21 01:41:20;;;;;;;7.10;5.88;;;;;;;;;;4939053;29;20047;-82
2023/08/21 01:43:47;;;;;;;9.95;5.60;;;;;;;;;;4929380;29;20063;-82
2023/08/21 01:46:17;;;;;;;8.50;6.45;;;;;;;;;;4941365;29;20044;-82
2023/08/21 01:48:45;;;;;;;11.32;6.78;;;;;;;;;;4921514;29;20811;-82
2023/08/21 01:51:12;;;;;;;10.98;6.18;;;;;;;;;;4937104;29;20055;-83
2023/08/21 01:53:42;;;;;;;7.10;5.15;;;;;;;;;;4917480;29;20059;-84
2023/08/21 01:56:09;;;;;;;8.73;5.28;;;;;;;;;;4932670;29;20051;-84
2023/08/21 01:58:38;;;;;;;9.43;6.28;;;;;;;;;;4919447;29;20047;-84
2023/08/21 02:01:10;;;;;;;9.57;6.47;;;;;;;;;;4919033;29;20055;-83
2023/08/21 02:03:37;;;;;;;10.98;6.97;;;;;;;;;;4919776;29;20397;-85
2023/08/21 02:06:09;;;;;;;11.57;6.28;;;;;;;;;;4917854;29;20051;-85
2023/08/21 02:08:40;;;;;;;10.20;6.68;;;;;;;;;;4916958;29;20397;-84
2023/08/21 02:11:12;;;;;;;12.73;6.50;;;;;;;;;;4919198;29;20052;-84
2023/08/21 02:13:43;;;;;;;14.27;6.32;;;;;;;;;;4931399;29;20059;-84
2023/08/21 02:16:13;;;;;;;9.25;5.05;;;;;;;;;;4921131;29;20051;-84
2023/08/21 02:18:42;;;;;;;8.60;6.20;;;;;;;;;;4926275;29;20068;-83
2023/08/21 02:21:11;;;;;;;6.78;5.68;;;;;;;;;;4947819;28;20048;-84
2023/08/21 02:23:38;;;;;;;7.10;5.65;;;;;;;;;;4944285;28;20067;-84
2023/08/21 02:26:08;;;;;;;7.97;6.32;;;;;;;;;;4935671;29;20511;-83
2023/08/21 02:28:35;;;;;;;6.97;6.22;;;;;;;;;;4934020;29;20054;-83
2023/08/21 02:31:11;;;;;;;8.52;5.75;;;;;;;;;;4936940;29;20114;-83
2023/08/21 02:33:43;;;;;;;11.13;6.13;;;;;;;;;;4934770;29;20043;-83
2023/08/21 02:36:11;;;;;;;11.68;6.13;;;;;;;;;;4933771;29;20516;-84
2023/08/21 02:38:38;;;;;;;10.18;6.07;;;;;;;;;;4933366;29;20055;-84
2023/08/21 02:41:10;;;;;;;12.30;6.82;;;;;;;;;;4933746;29;20058;-84
2023/08/21 02:43:40;;;;;;;11.85;6.38;;;;;;;;;;4923970;29;20063;-84
2023/08/21 02:46:08;;;;;;;11.10;7.30;;;;;;;;;;4926539;29;20052;-82
2023/08/21 02:48:42;;;;;;;;;;;;;;;;;;4931684;29;20059;-82
2023/08/21 02:51:11;;;;;;;8.35;6.03;;;;;;;;;;4921073;29;20326;-81
2023/08/21 02:53:38;;;;;;;7.00;6.30;;;;;;;;;;4920212;29;20063;-81
2023/08/21 02:56:06;;;;;;;7.47;6.70;;;;;;;;;;4935238;29;20064;-83
2023/08/21 02:58:35;;;;;;;8.90;6.38;;;;;;;;;;4946616;28;20039;-83
2023/08/21 03:01:03;;;;;;;14.40;7.07;;;;;;;;;;4915141;29;20067;-82
2023/08/21 03:03:30;;;;;;;6.80;6.07;;;;;;;;;;4921087;29;20060;-82
2023/08/21 03:05:59;;;;;;;7.43;6.55;;;;;;;;;;4937773;29;20052;-82
2023/08/21 03:08:26;;;;;;;7.82;5.88;;;;;;;;;;4922129;29;20056;-83
2023/08/21 03:10:57;;;;;;;7.20;5.68;;;;;;;;;;4919479;29;20093;-83
2023/08/21 03:13:24;;;;;;;8.50;6.40;;;;;;;;;;4937386;29;20496;-83
2023/08/21 03:15:53;;;;;;;6.90;5.32;;;;;;;;;;4921181;29;20074;-82
2023/08/21 03:18:23;;;;;;;7.90;6.72;;;;;;;;;;4934762;29;20055;-82
2023/08/21 03:20:55;;;;;;;9.60;6.60;;;;;;;;;;4938082;29;20055;-82
2023/08/21 03:23:23;;;;;;;7.35;5.95;;;;;;;;;;4939263;29;20046;-81
2023/08/21 03:25:56;;;;;;;14.93;6.90;;;;;;;;;;4934088;29;20047;-82
2023/08/21 03:28:23;;;;;;;9.90;6.18;;;;;;;;;;4947856;28;20044;-83
2023/08/21 03:30:56;;;;;;;9.93;6.13;;;;;;;;;;4928484;29;20054;-83
2023/08/21 03:33:29;;;;;;;7.63;5.55;;;;;;;;;;4922453;29;20068;-82
2023/08/21 03:35:58;;;;;;;6.35;5.72;;;;;;;;;;4927184;29;20058;-81
2023/08/21 03:38:27;;;;;;;12.65;6.68;;;;;;;;;;4919905;29;20052;-81
2023/08/21 03:40:57;;;;;;;6.90;6.20;;;;;;;;;;4922302;29;21738;-81
2023/08/21 03:43:24;;;;;;;7.28;6.05;;;;;;;;;;4936917;29;20062;-82
2023/08/21 03:45:53;;;;;;;11.93;5.93;;;;;;;;;;4932217;29;20055;-83
2023/08/21 03:48:22;;;;;;;6.93;5.93;;;;;;;;;;4914477;29;20408;-83
2023/08/21 03:50:51;;;;;;;8.07;7.07;;;;;;;;;;4928453;29;20040;-83
2023/08/21 03:53:22;;;;;;;11.38;6.28;;;;;;;;;;4907382;29;20464;-83
2023/08/21 03:55:55;;;;;;;11.60;6.68;;;;;;;;;;4933908;29;20420;-83
2023/08/21 03:58:27;;;;;;;11.13;7.10;;;;;;;;;;4945521;28;20051;-83
2023/08/21 04:01:04;;;;;;;5.90;5.32;;;;;;;;;;4934033;29;20051;-83
2023/08/21 04:09:46;;;;;;;10.02;5.03;;;;;;;;;;2879932;23;20055;-84
2023/08/21 04:12:41;;;;;;;7.13;6.10;;;;;;;;;;4905510;29;20519;-84
2023/08/21 04:15:16;;;;;;;9.73;6.13;;;;;;;;;;4899941;29;20052;-85
2023/08/21 04:17:54;;;;;;;13.35;7.32;;;;;;;;;;4927019;29;20056;-83
2023/08/21 04:20:54;;;;;;;11.25;6.93;;;;;;;;;;4913064;23;21771;-92
2023/08/21 04:23:25;;;;;;;10.52;6.38;;;;;;;;;;4970888;28;20039;-92
2023/08/21 04:25:53;;;;;;;9.27;6.10;;;;;;;;;;4960037;28;20038;-93
2023/08/21 04:28:22;;;;;;;7.32;6.40;;;;;;;;;;4972724;28;20047;-94
2023/08/21 04:30:50;;;;;;;9.02;5.90;;;;;;;;;;4959365;28;20035;-92
2023/08/21 04:33:18;;;;;;;8.13;6.13;;;;;;;;;;4958416;28;20053;-91
2023/08/21 04:35:46;;;;;;;6.82;5.85;;;;;;;;;;4976246;28;20047;-92
2023/08/21 04:38:20;;;;;;;10.15;5.85;;;;;;;;;;4956901;28;20040;-91
2023/08/21 04:40:59;;;;;;;8.45;5.18;;;;;;;;;;4944372;28;20038;-92
2023/08/21 04:43:36;;;;;;;7.85;6.00;;;;;;;;;;4968465;28;20057;-91
2023/08/21 04:46:12;;;;;;;7.13;6.00;;;;;;;;;;4965893;28;20031;-91
2023/08/21 04:48:48;;;;;;;6.82;6.13;;;;;;;;;;4942047;29;20066;-92
2023/08/21 04:51:16;;;;;;;8.15;6.15;;;;;;;;;;4965008;29;20051;-92
2023/08/21 04:53:43;;;;;;;9.88;6.18;;;;;;;;;;4952220;28;20040;-93
2023/08/21 04:56:16;;;;;;;12.53;6.63;;;;;;;;;;4938075;29;20059;-93
2023/08/21 04:58:48;;;;;;;8.07;6.03;;;;;;;;;;4940218;29;20047;-93
2023/08/21 05:01:17;;;;;;;9.38;6.55;;;;;;;;;;4937639;29;20051;-93
2023/08/21 05:03:52;;;;;;;8.63;6.28;;;;;;;;;;4940316;28;20039;-93
2023/08/21 05:06:23;;;;;;;8.07;5.90;;;;;;;;;;4962047;29;20034;-92
2023/08/21 05:08:51;;;;;;;9.15;6.15;;;;;;;;;;4967316;28;20053;-93
2023/08/21 05:11:25;;;;;;;6.40;5.80;;;;;;;;;;4962712;29;20053;-92
2023/08/21 05:14:21;;;;;;;8.90;7.05;;;;;;;;;;4978124;28;20055;-92
2023/08/21 05:16:56;;;;;;;11.70;6.18;;;;;;;;;;4968108;28;20069;-93
2023/08/21 05:19:23;;;;;;;8.02;5.53;;;;;;;;;;4959739;29;20445;-94
2023/08/21 05:21:57;;;;;;;8.88;6.10;;;;;;;;;;4963440;28;20061;-92
2023/08/21 05:24:29;;;;;;;10.95;5.75;;;;;;;;;;4960155;28;20050;-93
2023/08/21 05:27:04;;;;;;;9.75;6.47;;;;;;;;;;4962709;28;20041;-93
2023/08/21 05:29:37;;;;;;;6.97;5.25;;;;;;;;;;4981820;28;20058;-92
2023/08/21 05:32:05;;;;;;;11.18;6.10;;;;;;;;;;4943839;28;20035;-93
2023/08/21 05:34:42;;;;;;;5.68;4.97;;;;;;;;;;4978246;28;20057;-93
2023/08/21 05:37:10;;;;;;;4.95;4.45;;;;;;;;;;4983807;28;20027;-93
2023/08/21 05:39:38;;;;;;;8.10;5.65;;;;;;;;;;4961508;28;20054;-92
2023/08/21 05:42:07;;;;;;;7.35;5.53;;;;;;;;;;4963055;28;20023;-93
2023/08/21 05:44:36;;;;;;;7.82;5.82;;;;;;;;;;4979009;28;20050;-93
2023/08/21 05:47:07;;;;;;;7.45;4.53;;;;;;;;;;4946039;28;20051;-93
2023/08/21 05:49:37;;;;;;;6.65;4.70;;;;;;;;;;4942472;28;20047;-93
2023/08/21 05:52:12;;;;;;;5.10;4.60;;;;;;;;;;4961051;28;20043;-93
2023/08/21 05:54:48;;;;;;;5.70;4.72;;;;;;;;;;4958193;28;20050;-92
2023/08/21 05:57:15;;;;;;;5.00;4.15;;;;;;;;;;4968093;28;20042;-92
2023/08/21 05:59:50;;;;;;;7.18;4.80;;;;;;;;;;4985817;28;20055;-94
2023/08/21 06:02:19;;;;;;;5.75;4.65;;;;;;;;;;4960858;28;20031;-92
2023/08/21 06:04:53;;;;;;;4.85;4.30;;;;;;;;;;4944829;28;20059;-93
2023/08/21 06:07:25;;;;;;;7.38;4.30;;;;;;;;;;4955054;28;20041;-93
2023/08/21 06:09:53;;;;;;;6.20;4.72;;;;;;;;;;4979123;28;20039;-93
2023/08/21 06:12:20;;;;;;;12.65;4.07;;;;;;;;;;4973633;28;20061;-93
2023/08/21 06:14:49;;;;;;;8.23;5.47;;;;;;;;;;4962044;28;20045;-93
2023/08/21 06:17:18;;;;;;;6.95;5.95;;;;;;;;;;4970663;28;20039;-93
2023/08/21 06:19:46;;;;;;;5.03;4.50;;;;;;;;;;4963535;28;20039;-93
2023/08/21 06:22:15;;;;;;;5.45;4.50;;;;;;;;;;4926450;28;1149989;-93
2023/08/21 06:24:43;;;;;;;5.72;4.90;;;;;;;;;;4974969;28;20026;-93
2023/08/21 06:27:14;;;;;;;5.45;4.28;;;;;;;;;;4961399;28;20050;-94
2023/08/21 06:29:42;;;;;;;4.72;4.20;;;;;;;;;;4960510;28;20035;-95
2023/08/21 06:32:16;;;;;;;6.50;4.40;;;;;;;;;;4947629;28;20035;-94
2023/08/21 06:34:45;;;;;;;7.68;5.30;;;;;;;;;;4962550;28;20023;-94
2023/08/21 06:37:13;;;;;;;7.10;4.72;;;;;;;;;;4962566;28;20023;-94
2023/08/21 06:39:41;;;;;;;6.18;4.18;;;;;;;;;;4958630;28;20039;-95
2023/08/21 06:42:09;;;;;;;5.07;4.30;;;;;;;;;;4970537;28;20031;-93
2023/08/21 06:44:53;;;;;;;4.82;4.38;;;;;;;;;;4959965;28;20027;-94
2023/08/21 06:47:40;;;;;;;5.30;4.80;;;;;;;;;;4962094;28;20043;-94
2023/08/21 06:50:10;;;;;;;9.65;4.85;;;;;;;;;;4957998;29;20047;-93
2023/08/21 06:52:40;;;;;;;7.85;4.40;;;;;;;;;;4962816;28;20035;-94
2023/08/21 06:55:08;;;;;;;6.50;4.80;;;;;;;;;;4957532;28;20047;-94
2023/08/21 06:57:38;;;;;;;6.72;4.80;;;;;;;;;;4973719;28;20039;-95
2023/08/21 07:00:07;;;;;;;5.80;4.68;;;;;;;;;;4964859;28;20059;-94
2023/08/21 07:02:36;;;;;;;4.28;3.88;;;;;;;;;;4959969;28;20031;-93
2023/08/21 07:05:04;;;;;;;4.95;4.45;;;;;;;;;;4977354;28;20047;-94
2023/08/21 07:07:33;;;;;;;4.88;4.38;;;;;;;;;;4962783;28;20047;-93
2023/08/21 07:10:03;;;;;;;5.93;4.75;;;;;;;;;;4962522;28;20045;-93
2023/08/21 07:12:30;;;;;;;6.68;4.60;;;;;;;;;;4958525;28;20045;-94
2023/08/21 07:14:58;;;;;;;7.13;4.43;;;;;;;;;;4972119;28;20343;-94
2023/08/21 07:17:28;;;;;;;8.18;5.28;;;;;;;;;;4971413;28;20034;-94
2023/08/21 07:19:57;;;;;;;7.00;4.22;;;;;;;;;;4959163;29;20032;-94
2023/08/21 07:22:26;;;;;;;8.68;5.70;;;;;;;;;;4943460;28;20035;-94
2023/08/21 07:24:53;;;;;;;5.38;4.53;;;;;;;;;;4970785;28;20043;-94
2023/08/21 07:27:21;;;;;;;7.53;4.88;;;;;;;;;;4966811;28;20044;-93
2023/08/21 07:29:48;;;;;;;4.95;4.40;;;;;;;;;;4961035;28;20035;-94
2023/08/21 07:32:18;;;;;;;6.05;4.70;;;;;;;;;;4945069;28;20037;-93
2023/08/21 07:34:46;;;;;;;5.90;5.13;;;;;;;;;;4970885;28;20034;-93
2023/08/21 07:37:21;;;;;;;5.75;4.82;;;;;;;;;;4978339;28;20015;-93
2023/08/21 07:39:48;;;;;;;6.75;4.97;;;;;;;;;;4951428;28;20043;-94
2023/08/21 07:42:16;;;;;;;10.15;5.25;;;;;;;;;;4975360;28;20037;-94
2023/08/21 07:44:43;;;;;;;4.97;4.55;;;;;;;;;;4974132;28;20031;-94
2023/08/21 07:47:12;;;;;;;5.03;4.50;;;;;;;;;;4978627;28;20069;-95
2023/08/21 07:49:41;;;;;;;5.13;4.65;;;;;;;;;;4965164;28;20060;-95
2023/08/21 07:52:11;;;;;;;5.15;4.75;;;;;;;;;;4954996;28;20035;-94
2023/08/21 07:54:40;;;;;;;6.25;5.30;;;;;;;;;;4966508;28;20123;-94
2023/08/21 07:57:08;;;;;;;8.18;4.80;;;;;;;;;;4958013;28;20028;-93
2023/08/21 07:59:36;;;;;;;7.88;4.38;;;;;;;;;;4961692;28;20050;-94
2023/08/21 08:02:04;;;;;;;5.93;4.78;;;;;;;;;;4971940;28;20046;-93
2023/08/21 08:04:32;;;;;;;7.40;5.68;;;;;;;;;;4944148;28;20042;-94
2023/08/21 08:06:59;;;;;;;4.95;4.55;;;;;;;;;;4966231;28;20045;-93
2023/08/21 08:09:27;;;;;;;6.13;5.25;;;;;;;;;;4960721;28;20058;-94
2023/08/21 08:11:55;;;;;;;5.50;5.00;;;;;;;;;;4974886;28;20042;-93
2023/08/21 08:14:25;;;;;;;6.07;5.40;;;;;;;;;;4964610;28;20030;-94
2023/08/21 08:16:53;;;;;;;7.65;5.00;;;;;;;;;;4960029;28;20039;-94
2023/08/21 08:19:20;;;;;;;6.57;6.03;;;;;;;;;;4955165;29;20046;-94
2023/08/21 08:21:50;;;;;;;7.18;5.10;;;;;;;;;;4954964;28;20034;-93
2023/08/21 08:24:26;;;;;;;5.88;5.20;;;;;;;;;;4974178;28;20019;-94
2023/08/21 08:26:55;;;;;;;12.02;6.47;;;;;;;;;;4976714;28;20051;-92
2023/08/21 08:29:23;;;;;;;8.30;5.38;;;;;;;;;;4954309;29;20312;-94
2023/08/21 08:31:51;;;;;;;10.35;5.93;;;;;;;;;;4961056;28;20049;-95
2023/08/21 08:34:20;;;;;;;10.30;5.53;;;;;;;;;;4958633;28;20055;-94
2023/08/21 08:36:47;;;;;;;8.73;6.05;;;;;;;;;;4975171;28;20066;-93
2023/08/21 08:39:15;;;;;;;10.35;5.93;;;;;;;;;;4974130;28;20027;-93
2023/08/21 08:41:48;;;;;;;10.88;5.78;;;;;;;;;;4974599;28;20047;-93
2023/08/21 08:44:19;;;;;;;12.10;6.47;;;;;;;;;;4968295;28;20038;-93
2023/08/21 08:46:48;;;;;;;10.63;6.57;;;;;;;;;;4959655;28;20049;-93
2023/08/21 08:49:21;;;;;;;8.70;5.30;;;;;;;;;;4959713;28;20037;-93
2023/08/21 08:51:58;;;;;;;13.35;6.65;;;;;;;;;;4977263;28;20054;-94
2023/08/21 08:55:03;;;;;;;8.10;6.07;;;;;;;;;;4968504;28;20037;-93
2023/08/21 08:57:32;;;;;;;10.40;6.20;;;;;;;;;;4960030;28;20036;-93
2023/08/21 09:00:03;;;;;;;9.45;6.35;;;;;;;;;;4976872;28;20059;-94
2023/08/21 09:02:36;;;;;;;12.35;7.20;;;;;;;;;;4964037;28;20043;-93
2023/08/21 09:05:08;;;;;;;8.77;6.10;;;;;;;;;;4973449;28;20057;-92
2023/08/21 09:07:35;;;;;;;17.02;6.25;;;;;;;;;;4973055;28;20041;-93
2023/08/21 09:10:03;;;;;;;7.78;6.00;;;;;;;;;;4969220;28;20058;-94
2023/08/21 09:12:33;;;;;;;8.25;6.25;;;;;;;;;;4961196;28;20030;-94
2023/08/21 09:15:11;;;;;;;8.05;5.53;;;;;;;;;;4973694;28;20051;-93
2023/08/21 09:17:39;;;;;;;6.47;5.28;;;;;;;;;;4974983;28;20043;-93
2023/08/21 09:20:10;;;;;;;23.13;7.97;;;;;;;;;;4961932;28;20038;-93
2023/08/21 09:22:56;;;;;;;6.97;6.10;;;;;;;;;;4953323;28;20062;-94
2023/08/21 09:25:27;;;;;;;5.78;5.28;;;;;;;;;;4945546;28;20044;-93
2023/08/21 09:27:56;;;;;;;7.78;6.38;;;;;;;;;;4973131;28;20035;-94
2023/08/21 09:30:26;;;;;;;9.15;5.90;;;;;;;;;;4944550;28;20053;-93
2023/08/21 09:32:59;;;;;;;6.93;4.80;;;;;;;;;;4961242;28;20042;-94
2023/08/21 09:35:29;;;;;;;10.25;6.35;;;;;;;;;;4944810;28;20075;-94
2023/08/21 09:38:00;;;;;;;9.05;6.75;;;;;;;;;;4959227;28;20062;-93
2023/08/21 09:40:29;;;;;;;5.55;5.05;;;;;;;;;;4944633;28;20028;-94
2023/08/21 09:42:57;;;;;;;6.60;5.32;;;;;;;;;;4973506;28;20030;-93
2023/08/21 09:45:27;;;;;;;6.72;5.88;;;;;;;;;;4969197;28;20028;-94
2023/08/21 09:47:55;;;;;;;5.95;5.35;;;;;;;;;;4969719;28;20031;-94
2023/08/21 09:50:28;;;;;;;7.10;4.88;;;;;;;;;;4976601;28;20046;-93
2023/08/21 09:53:18;;;;;;;6.50;5.03;;;;;;;;;;4945857;28;20061;-94
2023/08/21 09:56:04;;;;;;;5.53;5.03;;;;;;;;;;4974477;28;20031;-93
2023/08/21 09:58:32;;;;;;;11.05;7.13;;;;;;;;;;4945536;28;20035;-94
2023/08/21 10:01:08;;;;;;;6.32;5.50;;;;;;;;;;4946122;28;20063;-95
2023/08/21 10:03:37;;;;;;;5.85;4.82;;;;;;;;;;4969532;28;20049;-93
2023/08/21 10:06:06;;;;;;;10.90;5.95;;;;;;;;;;4977500;28;20051;-93
2023/08/21 10:08:38;;;;;;;6.72;5.07;;;;;;;;;;4962974;28;20049;-93
2023/08/21 10:11:09;;;;;;;5.15;4.68;;;;;;;;;;4966741;28;20051;-92
2023/08/21 10:13:38;;;;;;;6.32;5.55;;;;;;;;;;4978134;28;20035;-93
2023/08/21 10:16:08;;;;;;;5.55;5.00;;;;;;;;;;4960669;28;20031;-94
2023/08/21 10:18:36;;;;;;;6.55;4.32;;;;;;;;;;4965067;28;20031;-94
2023/08/21 10:21:25;;;;;;;8.68;4.50;;;;;;;;;;4958882;28;20048;-94
2023/08/21 10:24:06;;;;;;;4.60;4.20;;;;;;;;;;4970909;28;20035;-94
2023/08/21 10:26:40;;;;;;;6.80;5.35;;;;;;;;;;4963648;28;20027;-94
2023/08/21 10:29:08;;;;;;;6.07;4.30;;;;;;;;;;4959415;29;20032;-93
2023/08/21 10:31:40;;;;;;;4.85;4.32;;;;;;;;;;4961425;28;20035;-94
2023/08/21 10:34:09;;;;;;;3.50;3.20;;;;;;;;;;4980159;28;20045;-93
2023/08/21 10:36:45;;;;;;;9.30;5.05;;;;;;;;;;4969103;28;20042;-93
2023/08/21 10:39:17;;;;;;;8.45;4.25;;;;;;;;;;4959116;28;20035;-94
2023/08/21 10:41:54;;;;;;;5.35;3.45;;;;;;;;;;4962234;28;20232;-94
2023/08/21 10:44:51;;;;;;;4.75;4.35;;;;;;;;;;4963114;28;20031;-93
2023/08/21 10:47:21;;;;;;;3.75;3.45;;;;;;;;;;4966397;28;20049;-93
2023/08/21 10:49:51;;;;;;;4.78;3.28;;;;;;;;;;4955844;28;20050;-94
2023/08/21 10:52:23;;;;;;;4.55;3.75;;;;;;;;;;4976010;28;20044;-93
2023/08/21 10:54:54;;;;;;;7.10;3.45;;;;;;;;;;4943939;28;20041;-94
2023/08/21 10:57:22;;;;;;;5.22;3.45;;;;;;;;;;4939784;28;20047;-93
2023/08/21 10:59:54;;;;;;;4.78;4.35;;;;;;;;;;4961925;28;20023;-93
2023/08/21 11:02:26;;;;;;;5.93;4.25;;;;;;;;;;4960829;28;20047;-93
2023/08/21 11:04:54;;;;;;;7.50;4.88;;;;;;;;;;4961096;28;20031;-93
2023/08/21 11:07:22;;;;;;;4.80;4.10;;;;;;;;;;4951195;28;20049;-92
2023/08/21 11:09:49;;;;;;;6.03;3.67;;;;;;;;;;4963104;28;20041;-94
2023/08/21 11:12:18;;;;;;;11.68;3.97;;;;;;;;;;4958948;28;20023;-93
2023/08/21 11:14:48;;;;;;;4.78;3.30;;;;;;;;;;4961852;28;20043;-95
2023/08/21 11:17:19;;;;;;;6.13;4.22;;;;;;;;;;4976058;28;20061;-93
2023/08/21 11:19:49;;;;;;;4.75;3.45;;;;;;;;;;4972606;28;20028;-93
2023/08/21 11:22:17;;;;;;;5.97;3.92;;;;;;;;;;4975738;28;20053;-93
2023/08/21 11:24:46;;;;;;;4.28;3.88;;;;;;;;;;4974188;28;20033;-93
2023/08/21 11:27:15;;;;;;;4.68;3.40;;;;;;;;;;4975532;28;20027;-94
2023/08/21 11:29:44;;;;;;;4.82;3.80;;;;;;;;;;4976332;28;20050;-94
2023/08/21 11:32:15;;;;;;;5.75;4.15;;;;;;;;;;4976521;28;20035;-93
2023/08/21 11:34:44;;;;;;;4.90;3.70;;;;;;;;;;4974996;28;20051;-93
2023/08/21 11:37:13;;;;;;;4.93;4.43;;;;;;;;;;4970479;28;20042;-94
2023/08/21 11:39:43;;;;;;;8.57;4.35;;;;;;;;;;4962123;28;20057;-93
2023/08/21 11:42:17;;;;;;;4.32;3.92;;;;;;;;;;4963508;28;20035;-93
2023/08/21 11:44:47;;;;;;;4.53;3.78;;;;;;;;;;4973672;28;20027;-92
2023/08/21 11:47:18;;;;;;;5.20;4.13;;;;;;;;;;4973124;28;20042;-94
2023/08/21 11:49:49;;;;;;;5.13;4.03;;;;;;;;;;4972432;28;20039;-93
2023/08/21 11:52:21;;;;;;;6.70;5.00;;;;;;;;;;4960955;28;20043;-93
2023/08/21 11:54:50;;;;;;;4.30;3.30;;;;;;;;;;4968235;28;20037;-95
2023/08/21 11:57:18;;;;;;;10.55;4.63;;;;;;;;;;4972773;28;20043;-93
2023/08/21 11:59:51;;;;;;;6.13;3.95;;;;;;;;;;4961526;28;20062;-94
2023/08/21 12:02:23;;;;;;;5.65;3.85;;;;;;;;;;4959157;28;20039;-93
2023/08/21 12:04:54;;;;;;;6.95;3.92;;;;;;;;;;4959711;28;20035;-94
2023/08/21 12:07:26;;;;;;;5.53;3.93;;;;;;;;;;4977229;28;20033;-93
2023/08/21 12:09:55;;;;;;;5.75;4.50;;;;;;;;;;4961315;28;20045;-93
2023/08/21 12:12:23;;;;;;;4.60;3.70;;;;;;;;;;4978248;28;20054;-93
2023/08/21 12:14:53;;;;;;;4.97;4.47;;;;;;;;;;4973287;28;20039;-93
2023/08/21 12:17:21;;;;;;;8.90;4.35;;;;;;;;;;4959268;28;20061;-93
2023/08/21 12:19:52;;;;;;;8.90;4.20;;;;;;;;;;4970707;28;20062;-93
2023/08/21 12:22:20;;;;;;;5.78;4.75;;;;;;;;;;4975012;28;20095;-93
2023/08/21 12:24:50;;;;;;;5.95;3.92;;;;;;;;;;4958534;28;20055;-94
2023/08/21 12:27:22;;;;;;;4.93;4.15;;;;;;;;;;4974719;28;20037;-93
2023/08/21 12:29:50;;;;;;;6.72;4.85;;;;;;;;;;4974674;28;20037;-93
2023/08/21 12:32:20;;;;;;;4.78;4.38;;;;;;;;;;4976961;28;20038;-93
2023/08/21 12:34:47;;;;;;;5.25;4.75;;;;;;;;;;4960598;28;20035;-93
2023/08/21 12:37:17;;;;;;;5.15;4.22;;;;;;;;;;4958198;28;20147;-94
2023/08/21 12:39:45;;;;;;;5.53;4.45;;;;;;;;;;4975554;28;20061;-92
2023/08/21 12:42:17;;;;;;;5.53;4.75;;;;;;;;;;4974353;28;20088;-93
2023/08/21 12:44:46;;;;;;;6.43;4.53;;;;;;;;;;4967681;28;20032;-93
2023/08/21 12:47:16;;;;;;;7.32;4.85;;;;;;;;;;4971031;28;20035;-93
2023/08/21 12:49:44;;;;;;;4.93;4.30;;;;;;;;;;4960773;28;20035;-93
2023/08/21 12:52:14;;;;;;;4.38;3.97;;;;;;;;;;4976339;28;20038;-94
2023/08/21 12:54:41;;;;;;;5.18;4.70;;;;;;;;;;4977572;28;20113;-94
2023/08/21 12:57:11;;;;;;;8.45;5.30;;;;;;;;;;4974383;28;20050;-93
2023/08/21 12:59:40;;;;;;;7.13;5.63;;;;;;;;;;4977789;28;20065;-93
2023/08/21 13:02:07;;;;;;;5.07;4.20;;;;;;;;;;4977725;28;20023;-94
2023/08/21 13:04:37;;;;;;;4.45;3.75;;;;;;;;;;4961066;28;20062;-93
2023/08/21 13:07:05;;;;;;;6.82;4.60;;;;;;;;;;4943638;28;21122;-92
2023/08/21 13:09:33;;;;;;;7.47;4.40;;;;;;;;;;4975691;28;20043;-93
2023/08/21 13:12:05;;;;;;;6.25;4.72;;;;;;;;;;4977700;28;20042;-94
2023/08/21 13:14:35;;;;;;;7.13;3.55;;;;;;;;;;4961247;28;20043;-94
2023/08/21 13:17:10;;;;;;;6.32;3.90;;;;;;;;;;4960379;28;20027;-93
2023/08/21 13:19:38;;;;;;;4.30;3.78;;;;;;;;;;4958404;28;20046;-94
2023/08/21 13:22:05;;;;;;;4.40;4.00;;;;;;;;;;4957271;29;20043;-93
2023/08/21 13:24:33;;;;;;;5.30;4.05;;;;;;;;;;4959399;28;20045;-93
2023/08/21 13:27:01;;;;;;;5.20;4.72;;;;;;;;;;4948200;28;20057;-93
2023/08/21 13:29:28;;;;;;;5.70;4.50;;;;;;;;;;4976603;28;20043;-94
2023/08/21 13:31:56;;;;;;;5.60;4.28;;;;;;;;;;4981385;28;20033;-94
2023/08/21 13:34:24;;;;;;;8.48;4.95;;;;;;;;;;4979941;28;20049;-94
2023/08/21 13:36:54;;;;;;;6.28;4.90;;;;;;;;;;4979986;28;20049;-93
2023/08/21 13:39:22;;;;;;;4.10;3.72;;;;;;;;;;4962065;28;20043;-93
2023/08/21 13:41:52;;;;;;;5.68;4.47;;;;;;;;;;4965082;28;20027;-93
2023/08/21 13:44:19;;;;;;;6.38;4.43;;;;;;;;;;4964447;28;20039;-93
2023/08/21 13:46:46;;;;;;;5.35;3.90;;;;;;;;;;4964567;28;20047;-93
2023/08/21 13:49:14;;;;;;;4.15;3.75;;;;;;;;;;4962155;28;20053;-93
2023/08/21 13:51:49;;;;;;;5.45;4.35;;;;;;;;;;4959425;29;20050;-93
2023/08/21 13:54:16;;;;;;;7.05;3.80;;;;;;;;;;4964292;28;20049;-93
2023/08/21 13:56:47;;;;;;;6.03;3.80;;;;;;;;;;4978644;28;20053;-94
2023/08/21 13:59:17;;;;;;;4.35;3.95;;;;;;;;;;4978855;28;20050;-94
2023/08/21 14:01:45;;;;;;;5.35;4.15;;;;;;;;;;4958932;28;20027;-94
2023/08/21 14:04:22;;;;;;;6.50;4.22;;;;;;;;;;4944752;28;20054;-93
2023/08/21 14:06:54;;;;;;;4.75;3.63;;;;;;;;;;4963143;28;20065;-94
2023/08/21 14:09:22;;;;;;;4.78;3.65;;;;;;;;;;4963665;28;20030;-94
2023/08/21 14:11:52;;;;;;;10.30;4.38;;;;;;;;;;4958615;28;20045;-94
2023/08/21 14:14:22;;;;;;;9.48;5.80;;;;;;;;;;4956690;28;20054;-94
2023/08/21 14:16:50;;;;;;;4.55;4.13;;;;;;;;;;4977386;28;20033;-93
2023/08/21 14:19:20;;;;;;;4.72;3.67;;;;;;;;;;4976752;28;20035;-93
2023/08/21 14:21:49;;;;;;;4.03;3.63;;;;;;;;;;4975574;28;20035;-93
2023/08/21 14:24:20;;;;;;;6.00;4.68;;;;;;;;;;4962725;29;20051;-95
2023/08/21 14:26:51;;;;;;;8.13;4.38;;;;;;;;;;4977017;28;20027;-94
2023/08/21 14:29:19;;;;;;;4.60;3.28;;;;;;;;;;4962537;28;20043;-93
2023/08/21 14:31:48;;;;;;;5.97;3.38;;;;;;;;;;4973598;28;20032;-94
2023/08/21 14:34:16;;;;;;;3.67;3.38;;;;;;;;;;4961308;28;20030;-93
2023/08/21 14:36:47;;;;;;;5.03;3.63;;;;;;;;;;4977100;28;20059;-94
2023/08/21 14:39:21;;;;;;;3.72;3.42;;;;;;;;;;4963247;28;20039;-93
2023/08/21 14:41:54;;;;;;;6.63;3.85;;;;;;;;;;4977324;28;20050;-94
2023/08/21 14:44:25;;;;;;;14.63;4.90;;;;;;;;;;4976757;28;20046;-94
2023/08/21 14:46:55;;;;;;;5.80;3.88;;;;;;;;;;4963272;28;20027;-95
2023/08/21 14:49:25;;;;;;;6.13;3.92;;;;;;;;;;4962663;28;20225;-93
2023/08/21 14:51:53;;;;;;;4.57;3.30;;;;;;;;;;4944568;29;20038;-94
2023/08/21 14:54:22;;;;;;;4.28;3.58;;;;;;;;;;4969366;28;20032;-94
2023/08/21 14:56:52;;;;;;;4.63;3.15;;;;;;;;;;4963679;28;20070;-93
2023/08/21 14:59:34;;;;;;;3.45;3.10;;;;;;;;;;4978614;28;20031;-92
2023/08/21 15:02:07;;;;;;;3.40;3.10;;;;;;;;;;4955406;28;20040;-93
2023/08/21 15:04:36;;;;;;;4.63;3.55;;;;;;;;;;4956720;28;20054;-94
2023/08/21 15:07:06;;;;;;;3.45;3.15;;;;;;;;;;4975395;28;20070;-93